createdAt,value
2023-05-21T00:02:20.187Z,17.20
2023-05-21T00:04:47.510Z,17.15
2023-05-21T00:07:15.362Z,17.00
2023-05-21T00:09:42.035Z,17.05
2023-05-21T00:12:09.132Z,17.05
2023-05-21T00:14:36.019Z,17.01
2023-05-21T00:17:02.594Z,16.98
2023-05-21T00:19:29.180Z,16.97
2023-05-21T00:21:55.983Z,16.90
2023-05-21T00:24:22.491Z,16.89
2023-05-21T00:26:48.954Z,16.90
2023-05-21T00:29:15.664Z,16.87
2023-05-21T00:31:42.227Z,16.88
2023-05-21T00:34:09.113Z,16.86
2023-05-21T00:36:35.634Z,16.87
2023-05-21T00:39:02.414Z,16.89
2023-05-21T00:41:30.175Z,16.87
2023-05-21T00:43:57.182Z,16.86
2023-05-21T00:46:24.140Z,16.84
2023-05-21T00:48:51.237Z,16.81
2023-05-21T00:51:18.700Z,16.76
2023-05-21T00:53:46.654Z,16.72
2023-05-21T00:56:13.712Z,16.69
2023-05-21T00:58:41.393Z,16.70
2023-05-21T01:01:13.539Z,16.68
2023-05-21T01:03:41.067Z,16.67
2023-05-21T01:06:09.154Z,16.64
2023-05-21T01:08:38.791Z,16.63
2023-05-21T01:11:07.478Z,16.61
2023-05-21T01:13:37.552Z,16.59
2023-05-21T01:16:06.622Z,16.55
2023-05-21T01:18:40.146Z,16.57
2023-05-21T01:21:07.540Z,16.47
2023-05-21T01:23:34.457Z,16.53
2023-05-21T01:26:01.007Z,16.51
2023-05-21T01:28:27.731Z,16.48
2023-05-21T01:30:58.613Z,16.47
2023-05-21T01:33:33.460Z,16.48
2023-05-21T01:36:06.686Z,16.49
2023-05-21T01:38:43.448Z,16.50
2023-05-21T01:41:15.612Z,16.50
2023-05-21T01:43:45.621Z,16.48
2023-05-21T01:46:17.199Z,16.46
2023-05-21T01:48:44.217Z,16.45
2023-05-21T01:51:11.552Z,16.41
2023-05-21T01:53:40.634Z,16.37
2023-05-21T01:56:07.753Z,16.35
2023-05-21T01:58:34.441Z,16.32
2023-05-21T02:01:00.949Z,16.29
2023-05-21T02:03:31.015Z,16.26
2023-05-21T02:05:57.802Z,16.20
2023-05-21T02:08:25.540Z,16.19
2023-05-21T02:10:52.190Z,16.20
2023-05-21T02:13:24.938Z,16.18
2023-05-21T02:15:54.776Z,16.20
2023-05-21T02:18:22.213Z,16.16
2023-05-21T02:20:48.843Z,16.14
2023-05-21T02:23:15.681Z,16.11
2023-05-21T02:25:42.547Z,16.08
2023-05-21T02:28:09.078Z,16.13
2023-05-21T02:30:35.991Z,16.11
2023-05-21T02:33:02.955Z,16.08
2023-05-21T02:35:29.908Z,16.05
2023-05-21T02:37:59.202Z,16.00
2023-05-21T02:40:25.856Z,15.97
2023-05-21T02:42:52.379Z,15.96
2023-05-21T02:45:20.946Z,15.92
2023-05-21T02:47:47.658Z,15.86
2023-05-21T02:50:17.459Z,15.81
2023-05-21T02:52:49.515Z,15.79
2023-05-21T02:55:16.200Z,15.80
2023-05-21T02:57:42.794Z,15.82
2023-05-21T03:00:10.593Z,15.81
2023-05-21T03:02:38.806Z,15.75
2023-05-21T03:05:06.074Z,15.74
2023-05-21T03:07:33.370Z,15.70
2023-05-21T03:09:59.974Z,15.66
2023-05-21T03:12:26.462Z,15.62
2023-05-21T03:14:53.086Z,15.61
2023-05-21T03:17:20.630Z,15.63
2023-05-21T03:19:49.030Z,15.61
2023-05-21T03:22:15.980Z,15.62
2023-05-21T03:24:42.474Z,15.59
2023-05-21T03:27:09.200Z,15.55
2023-05-21T03:29:36.219Z,15.48
2023-05-21T03:32:03.649Z,15.44
2023-05-21T03:34:34.504Z,15.38
2023-05-21T03:37:01.927Z,15.35
2023-05-21T03:39:29.211Z,15.30
2023-05-21T03:41:56.753Z,15.27
2023-05-21T03:44:32.791Z,15.25
2023-05-21T03:47:15.794Z,15.22
2023-05-21T03:49:42.720Z,15.19
2023-05-21T03:52:09.309Z,15.16
2023-05-21T03:54:35.965Z,15.17
2023-05-21T03:57:06.181Z,15.16
2023-05-21T03:59:33.204Z,15.15
2023-05-21T04:02:00.312Z,15.11
2023-05-21T04:04:29.292Z,15.10
2023-05-21T04:06:56.006Z,15.11
2023-05-21T04:09:23.033Z,15.14
2023-05-21T04:11:51.755Z,15.14
2023-05-21T04:14:18.298Z,15.16
2023-05-21T04:16:44.884Z,15.19
2023-05-21T04:19:11.480Z,15.22
2023-05-21T04:21:37.960Z,15.24
2023-05-21T04:24:05.188Z,15.23
2023-05-21T04:26:50.128Z,15.23
2023-05-21T04:29:21.303Z,15.26
2023-05-21T04:31:49.713Z,15.28
2023-05-21T04:34:19.903Z,15.33
2023-05-21T04:36:46.544Z,15.36
2023-05-21T04:39:14.735Z,15.39
2023-05-21T04:41:41.251Z,15.44
2023-05-21T04:44:08.441Z,15.44
2023-05-21T04:46:35.226Z,15.45
2023-05-21T04:49:03.064Z,15.45
2023-05-21T04:51:31.351Z,15.42
2023-05-21T04:53:58.201Z,15.39
2023-05-21T04:56:27.371Z,15.41
2023-05-21T04:58:54.328Z,15.46
2023-05-21T05:01:23.590Z,15.45
2023-05-21T05:03:50.555Z,15.50
2023-05-21T05:06:17.500Z,15.50
2023-05-21T05:08:46.233Z,15.51
2023-05-21T05:11:14.286Z,15.53
2023-05-21T05:13:43.681Z,15.57
2023-05-21T05:16:10.253Z,15.62
2023-05-21T05:18:37.172Z,15.64
2023-05-21T05:21:03.839Z,15.64
2023-05-21T05:23:30.603Z,15.68
2023-05-21T05:25:57.265Z,15.72
2023-05-21T05:28:23.778Z,15.77
2023-05-21T05:30:50.310Z,15.80
2023-05-21T05:33:22.269Z,15.84
2023-05-21T05:35:49.110Z,15.89
2023-05-21T05:38:15.639Z,15.93
2023-05-21T05:40:42.100Z,15.97
2023-05-21T05:43:08.737Z,15.98
2023-05-21T05:45:35.434Z,15.99
2023-05-21T05:48:06.463Z,16.03
2023-05-21T05:50:32.999Z,16.07
2023-05-21T05:52:59.521Z,16.15
2023-05-21T05:55:26.823Z,16.16
2023-05-21T05:57:54.193Z,16.17
2023-05-21T06:00:21.338Z,16.20
2023-05-21T06:02:49.907Z,16.26
2023-05-21T06:05:16.708Z,16.28
2023-05-21T06:07:43.307Z,16.30
2023-05-21T06:10:10.217Z,16.35
2023-05-21T06:12:36.874Z,16.37
2023-05-21T06:15:04.037Z,16.40
2023-05-21T06:17:31.692Z,16.41
2023-05-21T06:19:58.287Z,16.43
2023-05-21T06:22:26.716Z,16.49
2023-05-21T06:24:53.334Z,16.56
2023-05-21T06:27:20.586Z,16.66
2023-05-21T06:29:48.296Z,16.73
2023-05-21T06:32:14.845Z,16.77
2023-05-21T06:34:41.876Z,16.79
2023-05-21T06:37:08.383Z,16.84
2023-05-21T06:39:34.866Z,16.84
2023-05-21T06:42:01.776Z,16.86
2023-05-21T06:44:51.664Z,16.89
2023-05-21T06:47:37.387Z,16.89
2023-05-21T06:50:04.243Z,16.92
2023-05-21T06:52:31.802Z,16.99
2023-05-21T06:54:59.679Z,17.05
2023-05-21T06:57:29.280Z,17.11
2023-05-21T06:59:57.182Z,17.11
2023-05-21T07:02:23.787Z,17.06
2023-05-21T07:04:50.394Z,17.09
2023-05-21T07:07:16.918Z,17.15
2023-05-21T07:09:43.407Z,17.16
2023-05-21T07:12:10.157Z,17.16
2023-05-21T07:14:37.601Z,17.20
2023-05-21T07:17:04.369Z,17.29
2023-05-21T07:19:31.444Z,17.34
2023-05-21T07:21:58.662Z,17.39
2023-05-21T07:24:27.444Z,17.47
2023-05-21T07:26:54.319Z,17.53
2023-05-21T07:29:21.513Z,17.57
2023-05-21T07:31:48.098Z,17.65
2023-05-21T07:34:16.041Z,17.75
2023-05-21T07:36:42.582Z,17.79
2023-05-21T07:39:09.094Z,17.89
2023-05-21T07:41:36.977Z,17.97
2023-05-21T07:44:07.190Z,18.07
2023-05-21T07:46:37.690Z,18.13
2023-05-21T07:49:04.217Z,18.19
2023-05-21T07:51:31.241Z,18.26
2023-05-21T07:53:57.747Z,18.33
2023-05-21T07:56:32.314Z,18.44
2023-05-21T07:58:59.614Z,18.55
2023-05-21T08:01:29.553Z,18.60
2023-05-21T08:03:56.527Z,18.71
2023-05-21T08:06:24.355Z,18.79
2023-05-21T08:08:50.984Z,18.84
2023-05-21T08:11:17.734Z,18.85
2023-05-21T08:13:45.507Z,18.91
2023-05-21T08:16:12.900Z,18.98
2023-05-21T08:18:39.568Z,19.09
2023-05-21T08:21:06.408Z,19.18
2023-05-21T08:23:32.997Z,19.29
2023-05-21T08:26:00.107Z,19.38
2023-05-21T08:28:27.706Z,19.51
2023-05-21T08:30:54.941Z,19.64
2023-05-21T08:33:23.385Z,19.73
2023-05-21T08:35:49.931Z,19.80
2023-05-21T08:38:30.534Z,19.89
2023-05-21T08:41:07.645Z,20.00
2023-05-21T08:43:37.123Z,20.14
2023-05-21T08:46:04.692Z,20.28
2023-05-21T08:48:34.857Z,20.41
2023-05-21T08:51:01.494Z,20.52
2023-05-21T08:53:34.878Z,20.68
2023-05-21T08:56:03.792Z,20.81
2023-05-21T08:58:46.251Z,20.86
2023-05-21T09:01:19.105Z,20.90
2023-05-21T09:03:50.377Z,20.89
2023-05-21T09:06:17.230Z,20.83
2023-05-21T09:08:47.442Z,20.81
2023-05-21T09:11:32.375Z,20.76
2023-05-21T09:14:00.785Z,20.76
2023-05-21T09:16:49.780Z,20.71
2023-05-21T09:19:24.134Z,20.69
2023-05-21T09:21:53.765Z,20.75
2023-05-21T09:24:24.354Z,20.78
2023-05-21T09:26:52.463Z,20.79
2023-05-21T09:29:19.562Z,20.81
2023-05-21T09:31:46.624Z,20.81
2023-05-21T09:34:14.244Z,20.88
2023-05-21T09:36:43.814Z,20.87
2023-05-21T09:39:16.166Z,20.90
2023-05-21T09:41:43.113Z,20.91
2023-05-21T09:44:10.701Z,20.86
2023-05-21T09:46:41.437Z,20.85
2023-05-21T09:49:22.942Z,20.88
2023-05-21T09:51:49.809Z,20.96
2023-05-21T09:54:16.356Z,21.02
2023-05-21T09:56:42.907Z,21.08
2023-05-21T09:59:09.756Z,21.11
2023-05-21T10:01:37.474Z,21.08
2023-05-21T10:04:08.776Z,21.09
2023-05-21T10:06:42.009Z,21.11
2023-05-21T10:09:11.005Z,21.17
2023-05-21T10:11:39.559Z,21.23
2023-05-21T10:14:07.778Z,21.29
2023-05-21T10:16:36.203Z,21.36
2023-05-21T10:19:04.362Z,21.44
2023-05-21T10:21:33.307Z,21.48
2023-05-21T10:24:02.071Z,21.51
2023-05-21T10:26:28.798Z,21.56
2023-05-21T10:28:56.463Z,21.63
2023-05-21T10:31:23.425Z,21.64
2023-05-21T10:33:51.082Z,21.67
2023-05-21T10:36:20.655Z,21.71
2023-05-21T10:38:47.549Z,21.76
2023-05-21T10:41:17.249Z,21.81
2023-05-21T10:44:06.785Z,21.87
2023-05-21T10:46:48.538Z,22.01
2023-05-21T10:49:49.112Z,22.18
2023-05-21T10:52:33.801Z,22.34
2023-05-21T10:55:23.536Z,22.58
2023-05-21T10:58:10.956Z,22.82
2023-05-21T11:00:38.461Z,23.01
2023-05-21T11:03:06.179Z,23.17
2023-05-21T11:05:40.468Z,23.28
2023-05-21T11:08:21.370Z,23.32
2023-05-21T11:10:52.776Z,23.36
2023-05-21T11:13:22.411Z,23.32
2023-05-21T11:15:57.723Z,23.34
2023-05-21T11:18:47.097Z,23.38
2023-05-21T11:21:15.390Z,23.59
2023-05-21T11:23:51.195Z,23.83
2023-05-21T11:26:19.397Z,24.14
2023-05-21T11:28:46.098Z,24.57
2023-05-21T11:31:29.749Z,25.06
2023-05-21T11:34:15.670Z,25.44
2023-05-21T11:36:44.920Z,25.74
2023-05-21T11:39:17.802Z,26.03
2023-05-21T11:41:53.595Z,26.39
2023-05-21T11:44:48.502Z,26.58
2023-05-21T11:47:19.152Z,26.78
2023-05-21T11:49:46.581Z,26.90
2023-05-21T11:52:14.046Z,27.04
2023-05-21T11:54:46.081Z,27.16
2023-05-21T11:57:16.600Z,27.31
2023-05-21T11:59:43.240Z,27.46
2023-05-21T12:02:09.741Z,27.70
2023-05-21T12:04:36.776Z,27.92
2023-05-21T12:07:13.336Z,28.06
2023-05-21T12:09:40.790Z,28.13
2023-05-21T12:12:11.529Z,27.92
2023-05-21T12:14:37.983Z,27.70
2023-05-21T12:17:07.015Z,27.71
2023-05-21T12:19:34.738Z,27.75
2023-05-21T12:22:05.425Z,27.65
2023-05-21T12:24:32.230Z,27.76
2023-05-21T12:27:01.023Z,27.95
2023-05-21T12:29:29.728Z,28.12
2023-05-21T12:31:59.765Z,28.25
2023-05-21T12:34:41.566Z,28.43
2023-05-21T12:37:08.274Z,28.58
2023-05-21T12:39:39.351Z,28.67
2023-05-21T12:42:06.997Z,28.79
2023-05-21T12:44:34.861Z,28.85
2023-05-21T12:47:03.502Z,28.90
2023-05-21T12:49:37.524Z,29.13
2023-05-21T12:52:14.272Z,29.29
2023-05-21T12:54:43.779Z,29.45
2023-05-21T12:57:28.268Z,29.40
2023-05-21T12:59:59.643Z,29.34
2023-05-21T13:02:28.947Z,29.32
2023-05-21T13:05:00.800Z,29.28
2023-05-21T13:07:29.293Z,29.14
2023-05-21T13:09:56.493Z,29.09
2023-05-21T13:12:24.515Z,28.90
2023-05-21T13:14:51.856Z,28.79
2023-05-21T13:17:19.430Z,28.87
2023-05-21T13:20:20.136Z,28.98
2023-05-21T13:22:47.888Z,29.00
2023-05-21T13:25:16.334Z,28.98
2023-05-21T13:27:43.357Z,29.09
2023-05-21T13:30:11.702Z,29.31
2023-05-21T13:32:39.512Z,29.48
2023-05-21T13:35:07.230Z,29.58
2023-05-21T13:37:37.884Z,29.59
2023-05-21T13:40:04.766Z,29.69
2023-05-21T13:42:31.312Z,29.77
2023-05-21T13:44:58.244Z,29.73
2023-05-21T13:47:24.801Z,29.85
2023-05-21T13:49:51.552Z,30.00
2023-05-21T13:52:18.292Z,30.20
2023-05-21T13:54:44.757Z,30.28
2023-05-21T13:57:11.226Z,30.29
2023-05-21T13:59:37.713Z,30.35
2023-05-21T14:02:04.202Z,30.37
2023-05-21T14:04:30.675Z,30.45
2023-05-21T14:06:57.326Z,30.51
2023-05-21T14:09:27.042Z,30.55
2023-05-21T14:11:55.029Z,30.54
2023-05-21T14:14:22.015Z,30.61
2023-05-21T14:16:49.404Z,30.67
2023-05-21T14:19:16.702Z,30.68
2023-05-21T14:21:43.586Z,30.71
2023-05-21T14:24:10.470Z,30.78
2023-05-21T14:26:39.970Z,30.84
2023-05-21T14:29:06.828Z,30.84
2023-05-21T14:31:33.339Z,30.76
2023-05-21T14:33:59.858Z,30.63
2023-05-21T14:36:26.322Z,30.82
2023-05-21T14:38:52.837Z,31.06
2023-05-21T14:41:19.370Z,31.19
2023-05-21T14:43:45.838Z,30.76
2023-05-21T14:46:12.325Z,30.09
2023-05-21T14:48:38.881Z,29.41
2023-05-21T14:51:05.385Z,28.98
2023-05-21T14:53:32.279Z,29.14
2023-05-21T14:55:59.056Z,29.45
2023-05-21T14:58:25.534Z,29.72
2023-05-21T15:00:52.009Z,29.90
2023-05-21T15:03:18.547Z,29.98
2023-05-21T15:05:45.055Z,30.16
2023-05-21T15:08:11.520Z,30.30
2023-05-21T15:10:38.134Z,30.40
2023-05-21T15:13:04.599Z,30.47
2023-05-21T15:15:31.058Z,30.37
2023-05-21T15:17:58.059Z,30.38
2023-05-21T15:20:24.694Z,30.46
2023-05-21T15:22:53.495Z,30.42
2023-05-21T15:25:23.534Z,30.50
2023-05-21T15:27:50.713Z,30.42
2023-05-21T15:30:17.471Z,30.36
2023-05-21T15:32:44.076Z,30.16
2023-05-21T15:35:10.694Z,30.15
2023-05-21T15:37:37.319Z,30.20
2023-05-21T15:40:04.502Z,30.19
2023-05-21T15:42:31.891Z,30.15
2023-05-21T15:44:58.853Z,30.02
2023-05-21T15:47:25.554Z,29.92
2023-05-21T15:49:52.064Z,29.81
2023-05-21T15:52:19.965Z,29.76
2023-05-21T15:54:47.053Z,29.80
2023-05-21T15:57:13.569Z,29.82
2023-05-21T15:59:40.112Z,29.74
2023-05-21T16:02:07.695Z,29.69
2023-05-21T16:04:34.481Z,29.58
2023-05-21T16:07:00.932Z,29.54
2023-05-21T16:09:27.416Z,29.58
2023-05-21T16:11:53.901Z,29.63
2023-05-21T16:14:20.417Z,29.65
2023-05-21T16:16:46.929Z,29.70
2023-05-21T16:19:13.485Z,29.75
2023-05-21T16:21:39.992Z,29.85
2023-05-21T16:24:06.741Z,29.84
2023-05-21T16:26:33.235Z,29.85
2023-05-21T16:29:02.236Z,29.91
2023-05-21T16:31:29.045Z,29.99
2023-05-21T16:33:55.846Z,30.03
2023-05-21T16:36:22.387Z,29.89
2023-05-21T16:38:48.945Z,29.56
2023-05-21T16:41:15.605Z,29.18
2023-05-21T16:43:42.173Z,28.87
2023-05-21T16:46:08.677Z,28.61
2023-05-21T16:48:37.324Z,28.40
2023-05-21T16:51:04.597Z,28.23
2023-05-21T16:53:31.369Z,28.15
2023-05-21T16:55:57.921Z,28.02
2023-05-21T16:58:24.540Z,27.90
2023-05-21T17:00:51.082Z,27.83
2023-05-21T17:03:17.940Z,27.79
2023-05-21T17:05:44.642Z,27.86
2023-05-21T17:08:11.204Z,27.92
2023-05-21T17:10:37.700Z,27.94
2023-05-21T17:13:13.961Z,27.99
2023-05-21T17:15:47.706Z,27.84
2023-05-21T17:18:14.315Z,27.71
2023-05-21T17:20:41.015Z,27.68
2023-05-21T17:23:07.516Z,27.68
2023-05-21T17:25:34.682Z,27.68
2023-05-21T17:28:01.489Z,27.73
2023-05-21T17:30:27.948Z,27.74
2023-05-21T17:32:54.636Z,27.77
2023-05-21T17:35:21.195Z,27.72
2023-05-21T17:37:48.080Z,27.69
2023-05-21T17:40:14.597Z,27.70
2023-05-21T17:42:41.382Z,27.81
2023-05-21T17:45:09.269Z,28.14
2023-05-21T17:47:36.053Z,28.62
2023-05-21T17:50:02.757Z,29.16
2023-05-21T17:52:29.267Z,29.07
2023-05-21T17:54:55.811Z,28.68
2023-05-21T17:57:22.425Z,28.17
2023-05-21T17:59:48.904Z,27.63
2023-05-21T18:02:15.352Z,27.19
2023-05-21T18:04:41.822Z,26.85
2023-05-21T18:07:08.259Z,26.52
2023-05-21T18:09:34.768Z,26.25
2023-05-21T18:12:02.944Z,26.03
2023-05-21T18:14:29.402Z,25.76
2023-05-21T18:16:56.015Z,25.56
2023-05-21T18:19:22.626Z,25.36
2023-05-21T18:21:49.471Z,25.18
2023-05-21T18:24:15.952Z,25.00
2023-05-21T18:26:43.397Z,24.84
2023-05-21T18:29:11.234Z,24.70
2023-05-21T18:31:37.832Z,24.56
2023-05-21T18:34:04.432Z,24.44
2023-05-21T18:36:38.354Z,24.29
2023-05-21T18:39:08.947Z,24.19
2023-05-21T18:41:36.067Z,24.06
2023-05-21T18:44:02.720Z,23.97
2023-05-21T18:46:29.588Z,23.80
2023-05-21T18:48:56.378Z,23.73
2023-05-21T18:51:22.922Z,23.63
2023-05-21T18:53:49.527Z,23.51
2023-05-21T18:56:17.014Z,23.41
2023-05-21T18:58:43.484Z,23.33
2023-05-21T19:01:10.325Z,23.26
2023-05-21T19:03:38.017Z,23.17
2023-05-21T19:06:04.702Z,23.09
2023-05-21T19:08:31.169Z,22.97
2023-05-21T19:10:57.760Z,22.86
2023-05-21T19:13:24.349Z,22.77
2023-05-21T19:15:50.841Z,22.68
2023-05-21T19:18:17.443Z,22.60
2023-05-21T19:20:43.924Z,22.53
2023-05-21T19:23:10.665Z,22.43
2023-05-21T19:25:37.518Z,22.38
2023-05-21T19:28:04.048Z,22.32
2023-05-21T19:30:30.632Z,22.24
2023-05-21T19:32:57.484Z,22.19
2023-05-21T19:35:23.959Z,22.13
2023-05-21T19:37:50.537Z,22.08
2023-05-21T19:40:17.651Z,22.03
2023-05-21T19:42:44.796Z,22.00
2023-05-21T19:45:11.777Z,21.97
2023-05-21T19:47:40.980Z,21.94
2023-05-21T19:50:08.172Z,21.89
2023-05-21T19:52:34.659Z,21.83
2023-05-21T19:55:04.800Z,21.75
2023-05-21T19:57:32.573Z,21.65
2023-05-21T19:59:59.478Z,21.60
2023-05-21T20:02:28.550Z,21.52
2023-05-21T20:04:56.926Z,21.48
2023-05-21T20:07:23.790Z,21.40
2023-05-21T20:09:50.572Z,21.32
2023-05-21T20:12:17.050Z,21.24
2023-05-21T20:14:46.748Z,21.15
2023-05-21T20:17:14.400Z,20.99
2023-05-21T20:19:41.163Z,21.02
2023-05-21T20:22:07.694Z,20.97
2023-05-21T20:24:34.234Z,20.90
2023-05-21T20:27:01.600Z,20.84
2023-05-21T20:29:28.851Z,20.77
2023-05-21T20:31:55.493Z,20.72
2023-05-21T20:34:22.187Z,20.67
2023-05-21T20:36:48.719Z,20.64
2023-05-21T20:39:15.481Z,20.61
2023-05-21T20:41:44.834Z,20.59
2023-05-21T20:44:11.970Z,20.57
2023-05-21T20:46:38.989Z,20.54
2023-05-21T20:49:06.154Z,20.53
2023-05-21T20:51:33.081Z,20.51
2023-05-21T20:53:59.653Z,20.48
2023-05-21T20:56:40.715Z,20.48
2023-05-21T20:59:09.886Z,20.44
2023-05-21T21:01:38.165Z,20.32
2023-05-21T21:04:05.057Z,20.41
2023-05-21T21:06:31.930Z,20.39
2023-05-21T21:08:58.620Z,20.38
2023-05-21T21:11:26.647Z,20.36
2023-05-21T21:13:53.163Z,20.34
2023-05-21T21:16:19.798Z,20.34
2023-05-21T21:18:47.096Z,20.29
2023-05-21T21:21:13.860Z,20.31
2023-05-21T21:23:40.505Z,20.28
2023-05-21T21:26:07.177Z,20.24
2023-05-21T21:28:34.022Z,20.23
2023-05-21T21:31:00.729Z,20.25
2023-05-21T21:33:28.399Z,20.24
2023-05-21T21:35:55.008Z,20.24
2023-05-21T21:38:21.679Z,20.23
2023-05-21T21:40:48.268Z,20.25
2023-05-21T21:43:14.794Z,20.23
2023-05-21T21:45:41.354Z,20.23
2023-05-21T21:48:07.936Z,20.25
2023-05-21T21:50:34.601Z,20.24
2023-05-21T21:53:01.202Z,20.22
2023-05-21T21:55:29.514Z,20.18
2023-05-21T21:57:55.999Z,20.17
2023-05-21T22:00:26.381Z,20.12
2023-05-21T22:02:52.954Z,20.06
2023-05-21T22:05:19.468Z,20.03
2023-05-21T22:07:46.530Z,20.01
2023-05-21T22:10:17.217Z,20.00
2023-05-21T22:12:45.931Z,19.98
2023-05-21T22:15:19.236Z,19.93
2023-05-21T22:17:47.310Z,19.87
2023-05-21T22:20:13.976Z,19.81
2023-05-21T22:22:40.594Z,19.76
2023-05-21T22:25:07.351Z,19.69
2023-05-21T22:27:34.016Z,19.65
2023-05-21T22:30:00.887Z,19.61
2023-05-21T22:32:27.406Z,19.57
2023-05-21T22:34:53.908Z,19.54
2023-05-21T22:37:20.421Z,19.54
2023-05-21T22:39:46.884Z,19.51
2023-05-21T22:42:13.434Z,19.50
2023-05-21T22:44:40.108Z,19.49
2023-05-21T22:47:09.269Z,19.47
2023-05-21T22:49:38.062Z,19.46
2023-05-21T22:52:06.363Z,19.45
2023-05-21T22:54:32.822Z,19.42
2023-05-21T22:57:01.205Z,19.42
2023-05-21T22:59:29.224Z,19.40
2023-05-21T23:01:55.875Z,19.40
2023-05-21T23:04:35.732Z,19.39
2023-05-21T23:07:09.710Z,19.39
2023-05-21T23:09:36.529Z,19.39
2023-05-21T23:12:03.739Z,19.40
2023-05-21T23:14:30.460Z,19.38
2023-05-21T23:17:01.704Z,19.36
2023-05-21T23:19:29.553Z,19.36
2023-05-21T23:21:56.373Z,19.31
2023-05-21T23:24:23.369Z,19.29
2023-05-21T23:26:50.010Z,19.24
2023-05-21T23:29:16.628Z,19.14
2023-05-21T23:31:43.645Z,19.13
2023-05-21T23:34:10.294Z,19.10
2023-05-21T23:36:36.789Z,19.07
2023-05-21T23:39:03.509Z,19.04
2023-05-21T23:41:30.168Z,19.01
2023-05-21T23:43:57.607Z,18.95
2023-05-21T23:46:24.111Z,18.90
2023-05-21T23:48:50.617Z,18.85
2023-05-21T23:51:19.147Z,18.77
2023-05-21T23:53:45.784Z,18.66
2023-05-21T23:56:12.399Z,18.54
2023-05-21T23:58:38.865Z,18.41
